Time;durP1;ratioP1;P1;durP2;ratioP2;P2;SDS_P1;SDS_P2;PMS_P1;PMS_P2;Temp;Humidity;BMP_temperature;BMP_pressure;BME280_temperature;BME280_humidity;BME280_pressure;Samples;Min_cycle;Max_cycle;Signal;HPM_P1;HPM_P2
2022/06/12 00:00:54;;;;;;;6.30;5.80;;;15.40;99.90;;;;;;4973586;28;20419;-75
2022/06/12 00:03:25;;;;;;;7.60;5.90;;;15.30;99.90;;;;;;4974077;28;20176;-74
2022/06/12 00:05:53;;;;;;;6.77;6.20;;;15.30;99.90;;;;;;4973891;28;20415;-74
2022/06/12 00:08:20;;;;;;;9.10;6.63;;;15.30;99.90;;;;;;4973978;28;20459;-74
2022/06/12 00:10:48;;;;;;;10.93;6.53;;;15.20;99.90;;;;;;4973262;28;20995;-74
2022/06/12 00:13:17;;;;;;;6.57;5.97;;;15.20;99.90;;;;;;4973740;28;20478;-74
2022/06/12 00:15:42;;;;;;;8.43;6.27;;;15.20;99.90;;;;;;4973480;28;20459;-75
2022/06/12 00:18:09;;;;;;;11.50;6.70;;;15.20;99.90;;;;;;4973749;28;20465;-74
2022/06/12 00:20:34;;;;;;;5.70;5.30;;;15.10;99.90;;;;;;4973348;28;20187;-74
2022/06/12 00:23:04;;;;;;;10.47;6.40;;;15.10;99.90;;;;;;4977496;28;20936;-75
2022/06/12 00:25:30;;;;;;;6.40;5.80;;;15.10;99.90;;;;;;4977516;28;20653;-74
2022/06/12 00:27:56;;;;;;;6.97;6.37;;;15.00;99.90;;;;;;4977007;28;20491;-74
2022/06/12 00:30:23;;;;;;;13.10;7.00;;;15.00;99.90;;;;;;4973652;28;20176;-75
2022/06/12 00:32:52;;;;;;;9.27;7.30;;;15.00;99.90;;;;;;4972149;28;20593;-75
2022/06/12 00:35:20;;;;;;;7.17;6.47;;;15.00;99.90;;;;;;4973456;28;20419;-75
2022/06/12 00:37:46;;;;;;;9.57;6.97;;;15.00;99.90;;;;;;4973517;28;20438;-75
2022/06/12 00:40:12;;;;;;;7.20;6.03;;;15.00;99.90;;;;;;4973306;28;20453;-74
2022/06/12 00:42:42;;;;;;;6.90;6.30;;;15.00;99.90;;;;;;4973233;28;20625;-74
2022/06/12 00:45:26;;;;;;;8.43;7.37;;;14.90;99.90;;;;;;4973362;28;20434;-74
2022/06/12 00:47:55;;;;;;;10.50;7.07;;;14.90;99.90;;;;;;4973161;28;20518;-74
2022/06/12 00:50:21;;;;;;;10.80;6.93;;;14.80;99.90;;;;;;4973195;28;20442;-75
2022/06/12 00:52:49;;;;;;;9.07;6.23;;;14.80;99.90;;;;;;4972740;28;20455;-74
2022/06/12 00:55:24;;;;;;;9.80;6.57;;;14.80;99.90;;;;;;4973159;28;20164;-74
2022/06/12 00:58:16;;;;;;;6.40;5.80;;;14.80;99.90;;;;;;4972971;28;20886;-74
2022/06/12 02:31:40;;;;;;;7.07;6.03;;;14.00;99.90;;;;;;5802228;23;20967;-74
2022/06/12 02:34:12;;;;;;;7.90;6.40;;;14.00;99.90;;;;;;4994559;28;20421;-75
2022/06/12 02:36:43;;;;;;;10.07;6.13;;;13.90;99.90;;;;;;4988191;28;20787;-75
2022/06/12 02:39:20;;;;;;;8.00;6.50;;;13.90;99.90;;;;;;4998156;28;20434;-75
2022/06/12 02:41:53;;;;;;;6.20;5.60;;;13.90;99.90;;;;;;4999469;28;20533;-76
2022/06/12 02:44:40;;;;;;;6.27;5.77;;;13.90;99.90;;;;;;4999814;28;20441;-75
2022/06/12 02:47:10;;;;;;;6.13;5.70;;;13.90;99.90;;;;;;4995693;28;20409;-75
2022/06/12 02:49:39;;;;;;;9.67;6.50;;;13.90;99.90;;;;;;4994968;28;20815;-74
2022/06/12 02:52:20;;;;;;;7.43;6.53;;;13.80;99.90;;;;;;4994412;28;20850;-75
2022/06/12 02:55:03;;;;;;;6.77;6.17;;;13.80;99.90;;;;;;4994799;28;20415;-75
2022/06/12 02:57:51;;;;;;;6.97;5.90;;;13.80;99.90;;;;;;4994700;28;20418;-74
2022/06/12 03:00:28;;;;;;;12.03;7.13;;;13.80;99.90;;;;;;4994826;28;20407;-75
2022/06/12 03:03:05;;;;;;;7.50;6.43;;;13.80;99.90;;;;;;4994457;28;21134;-75
2022/06/12 03:05:37;;;;;;;6.37;5.77;;;13.70;99.90;;;;;;4994542;28;20413;-74
2022/06/12 03:08:07;;;;;;;6.17;5.63;;;13.70;99.90;;;;;;4994509;28;20851;-74
2022/06/12 03:10:36;;;;;;;7.83;6.60;;;13.70;99.90;;;;;;4994514;28;20426;-71
2022/06/12 03:13:04;;;;;;;6.07;5.57;;;13.70;99.90;;;;;;4993377;28;20468;-75
2022/06/12 03:15:53;;;;;;;6.50;5.90;;;13.60;99.90;;;;;;4994161;28;20452;-74
2022/06/12 03:18:23;;;;;;;6.20;5.70;;;13.60;99.90;;;;;;4994068;28;20415;-76
2022/06/12 03:20:57;;;;;;;11.10;5.77;;;13.60;99.90;;;;;;4994075;28;20415;-73
2022/06/12 03:23:49;;;;;;;7.30;6.10;;;13.60;99.90;;;;;;4994347;28;20418;-75
2022/06/12 03:26:28;;;;;;;6.97;6.00;;;13.60;99.90;;;;;;4990234;28;20431;-75
2022/06/12 03:29:16;;;;;;;6.30;5.67;;;13.70;99.90;;;;;;4994343;28;20490;-75
2022/06/12 03:31:59;;;;;;;7.40;6.70;;;13.70;99.90;;;;;;4993585;28;20482;-76
2022/06/12 03:34:35;;;;;;;7.37;6.67;;;13.70;99.90;;;;;;4994154;28;20406;-75
2022/06/12 03:37:18;;;;;;;6.53;6.00;;;13.70;99.90;;;;;;4994239;28;20414;-76
2022/06/12 03:40:27;;;;;;;8.73;6.10;;;13.70;99.90;;;;;;4994047;28;20410;-77
2022/06/12 03:43:10;;;;;;;6.70;6.03;;;13.70;99.90;;;;;;4994211;28;20438;-76
2022/06/12 03:45:49;;;;;;;7.40;6.30;;;13.70;99.90;;;;;;4993972;28;20461;-74
2022/06/12 03:48:29;;;;;;;9.87;6.40;;;13.70;99.90;;;;;;4993810;28;20418;-74
2022/06/12 03:51:26;;;;;;;6.73;6.00;;;13.70;99.90;;;;;;4993714;28;20490;-75
2022/06/12 03:54:03;;;;;;;6.57;5.57;;;13.70;99.90;;;;;;4975674;28;20966;-76
2022/06/12 03:59:52;;;;;;;6.70;6.10;;;13.80;99.90;;;;;;4993783;28;20918;-75
2022/06/12 04:02:22;;;;;;;8.73;6.60;;;13.80;99.90;;;;;;4993097;28;20488;-75
2022/06/12 04:04:50;;;;;;;6.87;6.27;;;13.80;99.90;;;;;;4993561;28;20413;-75
2022/06/12 04:07:18;;;;;;;6.90;6.20;;;13.90;99.90;;;;;;4993357;28;20419;-77
2022/06/12 04:09:49;;;;;;;7.20;6.50;;;13.90;99.90;;;;;;4993571;28;20458;-77
2022/06/12 04:12:23;;;;;;;8.23;6.23;;;14.00;99.90;;;;;;4992912;28;20438;-75
2022/06/12 04:15:12;;;;;;;7.00;6.40;;;14.00;99.90;;;;;;4993387;28;20422;-75
2022/06/12 04:17:39;;;;;;;7.00;6.30;;;14.10;99.90;;;;;;4993339;28;20411;-75
2022/06/12 04:20:10;;;;;;;7.27;6.50;;;14.10;99.90;;;;;;4993151;28;20812;-75
2022/06/12 04:23:01;;;;;;;7.07;6.50;;;14.20;99.90;;;;;;4992917;28;20442;-74
2022/06/12 04:25:49;;;;;;;9.80;6.23;;;14.30;99.90;;;;;;4993132;28;20778;-75
2022/06/12 04:28:35;;;;;;;9.57;6.73;;;14.40;99.90;;;;;;4992894;28;20460;-74
2022/06/12 04:31:04;;;;;;;6.80;6.20;;;14.50;99.90;;;;;;4992606;28;20461;-75
2022/06/12 04:33:52;;;;;;;6.13;5.53;;;14.60;99.90;;;;;;4991557;28;20426;-76
2022/06/12 04:36:18;;;;;;;6.50;5.90;;;14.70;99.90;;;;;;4992747;28;20423;-75
2022/06/12 04:38:44;;;;;;;7.30;6.60;;;14.80;99.90;;;;;;4992853;28;20470;-74
2022/06/12 04:41:14;;;;;;;9.37;6.40;;;14.90;99.90;;;;;;4992467;28;20230;-74
2022/06/12 04:43:39;;;;;;;6.93;6.23;;;15.00;99.90;;;;;;4991005;28;20214;-75
2022/06/12 04:46:05;;;;;;;6.47;5.70;;;15.10;99.90;;;;;;4992888;28;20442;-74
2022/06/12 04:48:40;;;;;;;6.43;5.90;;;15.30;99.90;;;;;;4992472;28;20265;-75
2022/06/12 04:51:09;;;;;;;6.73;6.23;;;15.40;99.90;;;;;;4991216;28;20195;-75
2022/06/12 04:53:35;;;;;;;7.30;6.30;;;15.60;99.90;;;;;;4992680;28;20814;-75
2022/06/12 04:56:02;;;;;;;7.20;6.30;;;15.70;99.90;;;;;;4991344;28;20658;-75
2022/06/12 04:58:28;;;;;;;6.90;6.40;;;15.80;99.90;;;;;;4992262;28;20417;-74
2022/06/12 05:00:53;;;;;;;6.50;5.47;;;16.70;99.90;;;;;;4992375;28;20434;-76
2022/06/12 05:03:19;;;;;;;5.00;3.90;;;18.90;99.90;;;;;;4992101;28;20180;-75
2022/06/12 05:05:45;;;;;;;5.07;4.70;;;21.40;99.90;;;;;;4992513;28;20182;-75
2022/06/12 05:08:11;;;;;;;8.90;4.60;;;23.40;99.90;;;;;;4992643;28;20915;-75
2022/06/12 05:10:37;;;;;;;4.37;4.00;;;25.10;99.90;;;;;;4990726;28;20191;-76
2022/06/12 05:13:03;;;;;;;4.80;4.37;;;26.60;99.90;;;;;;4992240;28;20191;-75
2022/06/12 05:15:29;;;;;;;4.30;3.90;;;26.90;99.90;;;;;;4992125;28;20765;-76
2022/06/12 05:17:55;;;;;;;5.13;3.37;;;27.40;99.90;;;;;;4992078;28;20191;-76
2022/06/12 05:20:24;;;;;;;6.57;4.23;;;28.40;99.90;;;;;;4992184;28;20171;-76
2022/06/12 05:22:50;;;;;;;5.03;3.97;;;28.80;99.90;;;;;;4992103;28;20423;-76
2022/06/12 05:25:17;;;;;;;4.43;3.10;;;28.60;99.90;;;;;;4992058;28;20407;-76
2022/06/12 05:27:45;;;;;;;7.50;3.67;;;28.50;99.90;;;;;;4992030;28;20183;-76
2022/06/12 05:30:14;;;;;;;5.23;4.83;;;28.50;99.90;;;;;;4991870;28;20490;-76
2022/06/12 05:32:40;;;;;;;4.70;4.30;;;27.80;99.90;;;;;;4991542;28;20446;-76
2022/06/12 05:35:07;;;;;;;4.13;3.73;;;28.00;99.90;;;;;;4992083;28;20907;-77
2022/06/12 05:37:34;;;;;;;7.03;4.33;;;27.70;99.90;;;;;;4991970;28;20255;-76
2022/06/12 05:39:59;;;;;;;5.20;4.80;;;27.20;99.90;;;;;;4992020;28;20422;-75
2022/06/12 05:42:25;;;;;;;5.07;4.67;;;26.80;99.90;;;;;;4991505;28;20442;-76
2022/06/12 05:44:50;;;;;;;7.30;3.93;;;26.20;99.90;;;;;;4992006;28;20187;-75
2022/06/12 05:47:16;;;;;;;5.10;4.50;;;26.30;99.90;;;;;;4991759;28;20178;-75
2022/06/12 05:49:42;;;;;;;6.90;5.03;;;25.80;99.90;;;;;;4991870;28;20557;-76
2022/06/12 05:52:07;;;;;;;6.40;4.33;;;25.50;99.90;;;;;;4991506;28;20202;-76
2022/06/12 05:54:33;;;;;;;5.93;4.60;;;25.30;99.90;;;;;;4992258;28;20278;-77
2022/06/12 05:56:58;;;;;;;4.83;4.43;;;25.40;99.90;;;;;;4995955;28;20179;-77
2022/06/12 05:59:24;;;;;;;6.43;4.27;;;25.50;99.90;;;;;;4995759;28;20195;-77
2022/06/12 06:01:50;;;;;;;5.00;4.53;;;25.20;99.90;;;;;;4993016;28;20273;-75
2022/06/12 06:04:16;;;;;;;6.97;4.43;;;25.20;99.90;;;;;;4994750;28;20187;-77
2022/06/12 06:06:46;;;;;;;10.00;4.00;;;25.50;99.90;;;;;;4995634;28;20175;-78
2022/06/12 06:09:13;;;;;;;7.00;4.17;;;25.50;99.90;;;;;;4995373;28;20462;-78
2022/06/12 06:11:39;;;;;;;6.53;4.47;;;25.50;99.90;;;;;;4993095;28;20465;-79
2022/06/12 06:14:06;;;;;;;3.63;3.40;;;26.00;99.90;;;;;;4985203;28;20431;-76
2022/06/12 06:16:34;;;;;;;4.07;3.73;;;26.20;99.90;;;;;;4975765;28;20423;-75
2022/06/12 06:18:59;;;;;;;3.60;3.30;;;26.00;99.90;;;;;;5014676;28;20429;-77
2022/06/12 06:21:25;;;;;;;5.90;3.37;;;26.20;99.90;;;;;;5014090;28;20528;-77
2022/06/12 06:23:50;;;;;;;4.10;3.70;;;26.20;99.90;;;;;;5015608;28;20619;-76
2022/06/12 06:26:17;;;;;;;4.10;3.70;;;26.30;99.90;;;;;;5016424;28;20206;-76
2022/06/12 06:28:43;;;;;;;3.13;2.83;;;26.30;99.90;;;;;;5014201;28;20288;-76
2022/06/12 06:31:10;;;;;;;5.63;4.27;;;26.60;99.90;;;;;;5015013;28;20469;-76
2022/06/12 06:33:36;;;;;;;4.23;3.10;;;26.70;99.90;;;;;;5015057;28;20568;-76
2022/06/12 06:36:02;;;;;;;5.90;3.23;;;27.10;99.90;;;;;;5014862;28;20417;-77
2022/06/12 06:38:28;;;;;;;3.63;3.20;;;27.50;99.90;;;;;;5014920;28;20198;-76
2022/06/12 06:40:53;;;;;;;2.67;2.47;;;27.70;99.90;;;;;;5014917;28;20780;-77
2022/06/12 06:43:19;;;;;;;4.57;3.10;;;27.70;99.90;;;;;;5014766;28;20580;-77
2022/06/12 06:48:29;;;;;;;3.53;3.17;;;27.80;99.90;;;;;;5015019;28;20297;-76
2022/06/12 06:50:55;;;;;;;3.93;3.10;;;27.60;99.90;;;;;;5014739;28;20528;-76
2022/06/12 06:53:21;;;;;;;6.00;2.60;;;27.60;99.90;;;;;;5015047;28;20554;-76
2022/06/12 06:55:47;;;;;;;5.17;3.03;;;27.60;99.90;;;;;;5014688;28;20418;-76
2022/06/12 06:58:17;;;;;;;5.13;2.57;;;27.70;99.90;;;;;;5015113;28;20229;-78
2022/06/12 07:00:44;;;;;;;2.70;2.43;;;27.90;99.90;;;;;;5014464;28;20440;-77
2022/06/12 07:03:11;;;;;;;3.23;2.73;;;28.00;99.90;;;;;;5014695;28;20509;-76
2022/06/12 07:05:37;;;;;;;6.90;3.13;;;28.00;99.90;;;;;;5014259;28;20487;-77
2022/06/12 07:08:03;;;;;;;5.07;2.43;;;27.90;99.90;;;;;;5014623;28;20441;-78
2022/06/12 07:10:32;;;;;;;7.17;3.20;;;27.70;99.90;;;;;;5014261;28;20469;-75
2022/06/12 07:12:58;;;;;;;2.87;2.67;;;27.30;99.90;;;;;;5013045;28;20446;-77
2022/06/12 07:15:25;;;;;;;3.43;2.80;;;27.30;99.90;;;;;;5014481;28;20865;-77
2022/06/12 07:17:51;;;;;;;3.37;3.07;;;28.00;99.90;;;;;;5014566;28;20895;-77
2022/06/12 07:20:20;;;;;;;2.63;2.43;;;28.50;99.90;;;;;;5013644;28;20418;-77
2022/06/12 07:22:46;;;;;;;7.53;3.73;;;28.80;99.90;;;;;;5014359;28;20626;-78
2022/06/12 07:25:13;;;;;;;2.57;2.37;;;28.80;99.90;;;;;;5014934;28;20513;-76
2022/06/12 07:27:39;;;;;;;3.20;3.00;;;29.00;99.90;;;;;;5014951;28;20421;-76
2022/06/12 07:30:06;;;;;;;3.67;2.63;;;29.30;99.90;;;;;;5014015;28;20587;-77
2022/06/12 07:32:33;;;;;;;10.23;3.23;;;29.40;99.90;;;;;;5013514;28;20986;-74
2022/06/12 07:34:59;;;;;;;5.53;3.10;;;29.50;99.90;;;;;;5014073;28;20797;-76
2022/06/12 07:37:25;;;;;;;3.13;2.73;;;29.40;99.90;;;;;;5013984;28;20444;-77
2022/06/12 07:39:51;;;;;;;3.67;2.63;;;29.50;99.90;;;;;;5013807;28;20178;-78
2022/06/12 07:42:17;;;;;;;4.90;4.40;;;29.30;99.90;;;;;;5013294;28;20437;-78
2022/06/12 07:44:43;;;;;;;6.33;2.63;;;29.40;99.90;;;;;;5013743;28;20244;-75
2022/06/12 07:47:09;;;;;;;3.53;2.27;;;29.60;99.90;;;;;;5014257;28;20170;-75
2022/06/12 07:49:34;;;;;;;2.80;2.27;;;29.90;99.90;;;;;;5013633;28;20472;-76
2022/06/12 07:52:03;;;;;;;6.60;2.40;;;30.50;99.90;;;;;;5013376;28;20198;-76
2022/06/12 07:54:30;;;;;;;7.60;3.17;;;30.30;99.90;;;;;;5013336;28;20413;-73
2022/06/12 07:56:57;;;;;;;3.10;2.80;;;30.30;99.90;;;;;;5012041;28;20475;-77
2022/06/12 07:59:23;;;;;;;2.53;1.83;;;30.80;99.90;;;;;;5013038;28;20432;-75
2022/06/12 08:01:50;;;;;;;3.53;2.40;;;31.20;99.90;;;;;;5011896;28;20492;-76
2022/06/12 08:04:16;;;;;;;4.13;2.53;;;31.20;99.90;;;;;;5013525;28;20538;-77
2022/06/12 08:06:41;;;;;;;2.37;2.17;;;31.30;99.90;;;;;;5013774;28;20500;-76
2022/06/12 08:09:10;;;;;;;2.60;2.10;;;31.40;99.90;;;;;;5012181;28;20216;-76
2022/06/12 08:11:37;;;;;;;6.10;2.57;;;31.90;99.90;;;;;;5013016;28;20214;-76
2022/06/12 08:14:03;;;;;;;3.47;2.60;;;31.20;99.90;;;;;;5013726;28;20420;-77
2022/06/12 08:16:29;;;;;;;2.30;1.90;;;31.50;99.90;;;;;;5013319;28;20505;-75
2022/06/12 08:18:55;;;;;;;2.50;1.53;;;31.50;99.90;;;;;;5012135;28;20205;-72
2022/06/12 08:21:21;;;;;;;5.83;2.63;;;31.80;99.90;;;;;;5012547;28;20946;-75
2022/06/12 08:23:54;;;;;;;4.30;2.57;;;32.00;99.90;;;;;;5012384;28;20712;-74
2022/06/12 08:26:24;;;;;;;2.57;2.33;;;32.30;99.90;;;;;;5012564;28;20175;-75
2022/06/12 08:28:55;;;;;;;2.33;2.13;;;32.80;99.90;;;;;;5011657;28;21035;-75
2022/06/12 08:31:27;;;;;;;5.13;2.13;;;32.90;99.90;;;;;;5012762;28;20537;-75
2022/06/12 08:33:56;;;;;;;2.57;2.33;;;33.30;99.90;;;;;;5012909;28;20409;-76
2022/06/12 08:36:22;;;;;;;5.60;1.63;;;33.60;99.90;;;;;;5013101;28;20429;-76
2022/06/12 08:38:48;;;;;;;4.13;2.27;;;33.40;99.90;;;;;;5013055;28;20422;-77
2022/06/12 08:41:23;;;;;;;2.27;2.17;;;33.40;99.90;;;;;;5012579;28;20633;-75
2022/06/12 08:44:10;;;;;;;2.47;2.37;;;33.40;99.90;;;;;;5012953;28;20544;-75
2022/06/12 08:46:54;;;;;;;2.13;1.93;;;33.60;99.90;;;;;;5012774;28;20502;-76
2022/06/12 08:49:33;;;;;;;2.43;2.23;;;33.90;99.90;;;;;;5012622;28;20465;-77
2022/06/12 08:52:02;;;;;;;2.87;1.80;;;34.50;98.50;;;;;;5012679;28;20430;-75
2022/06/12 08:54:38;;;;;;;2.03;1.90;;;35.00;98.80;;;;;;5012670;28;20579;-73
2022/06/12 08:57:29;;;;;;;3.67;1.90;;;35.30;98.70;;;;;;5012991;28;20408;-76
2022/06/12 09:00:23;;;;;;;4.73;2.27;;;35.20;98.00;;;;;;5012214;28;20434;-74
2022/06/12 09:02:49;;;;;;;3.73;2.27;;;35.40;98.20;;;;;;5012099;28;20473;-75
2022/06/12 09:05:20;;;;;;;2.07;1.87;;;35.10;96.50;;;;;;5012121;28;20796;-75
2022/06/12 09:07:55;;;;;;;2.60;2.40;;;35.00;96.60;;;;;;5012514;28;20413;-76
2022/06/12 09:10:42;;;;;;;7.73;2.77;;;34.60;98.30;;;;;;5012306;28;20471;-76
2022/06/12 09:13:40;;;;;;;3.20;1.90;;;34.70;97.30;;;;;;5012422;28;20417;-76
2022/06/12 09:16:22;;;;;;;8.47;2.10;;;34.50;96.10;;;;;;5012501;28;20476;-75
2022/06/12 09:18:54;;;;;;;2.90;2.30;;;34.60;97.60;;;;;;5012676;28;20419;-75
2022/06/12 09:21:22;;;;;;;3.73;2.60;;;34.40;95.30;;;;;;5011790;28;20436;-75
2022/06/12 09:24:10;;;;;;;7.17;2.30;;;33.90;94.70;;;;;;5012189;28;20505;-76
2022/06/12 09:26:56;;;;;;;3.73;2.23;;;34.30;95.30;;;;;;5012184;28;20410;-74
2022/06/12 09:29:54;;;;;;;5.20;2.70;;;34.10;94.10;;;;;;5011698;28;20453;-76
2022/06/12 09:32:55;;;;;;;2.17;2.03;;;34.30;94.30;;;;;;5009939;28;20457;-76
2022/06/12 09:36:01;;;;;;;3.60;2.27;;;34.10;93.70;;;;;;5011695;28;20424;-75
2022/06/12 09:38:56;;;;;;;2.60;2.40;;;33.90;94.40;;;;;;5011736;28;20425;-77
2022/06/12 09:41:24;;;;;;;2.07;1.97;;;33.70;93.30;;;;;;5010099;28;20811;-75
2022/06/12 09:44:17;;;;;;;3.63;2.40;;;34.10;94.10;;;;;;5011820;28;20413;-75
2022/06/12 09:47:03;;;;;;;4.60;2.27;;;34.60;94.30;;;;;;5012121;28;20421;-75
2022/06/12 09:49:39;;;;;;;2.37;2.00;;;35.10;92.80;;;;;;5011908;28;20469;-74
2022/06/12 09:52:45;;;;;;;5.60;3.10;;;35.20;92.70;;;;;;5011321;28;20448;-75
2022/06/12 09:55:22;;;;;;;3.90;1.90;;;35.30;91.40;;;;;;5011631;28;20420;-75
2022/06/12 09:58:08;;;;;;;9.50;2.33;;;35.00;91.60;;;;;;5012070;28;20441;-76
2022/06/12 10:00:38;;;;;;;2.60;1.90;;;35.10;90.90;;;;;;5011911;28;20453;-76
2022/06/12 10:03:42;;;;;;;2.90;2.27;;;35.70;90.70;;;;;;5010427;28;20598;-77
2022/06/12 10:06:21;;;;;;;2.63;1.60;;;35.90;91.30;;;;;;4999578;28;20429;-75
2022/06/12 10:09:04;;;;;;;4.07;1.77;;;36.20;90.60;;;;;;5011280;28;20448;-77
2022/06/12 10:11:33;;;;;;;2.07;1.93;;;36.20;90.00;;;;;;5011396;28;20463;-77
2022/06/12 10:14:10;;;;;;;2.57;1.77;;;36.10;90.40;;;;;;5011831;28;20500;-76
2022/06/12 10:16:42;;;;;;;4.40;1.80;;;35.90;90.50;;;;;;5011661;28;20415;-76
2022/06/12 10:19:15;;;;;;;4.13;2.70;;;36.10;89.80;;;;;;5012034;28;20417;-76
2022/06/12 10:21:44;;;;;;;5.57;2.00;;;35.70;86.90;;;;;;5011395;28;20441;-76
2022/06/12 10:24:11;;;;;;;6.20;2.93;;;35.40;88.80;;;;;;5011571;28;20414;-76
2022/06/12 10:26:37;;;;;;;3.20;1.90;;;35.20;90.00;;;;;;5011497;28;20412;-76
2022/06/12 10:29:14;;;;;;;2.57;2.30;;;35.00;89.00;;;;;;5011419;28;20544;-76
2022/06/12 10:31:57;;;;;;;2.90;2.60;;;34.70;90.00;;;;;;5011150;28;20275;-76
2022/06/12 10:34:28;;;;;;;1.43;1.27;;;34.70;90.20;;;;;;5011817;28;20444;-76
2022/06/12 10:36:55;;;;;;;6.30;1.80;;;34.50;87.80;;;;;;5011576;28;20414;-75
2022/06/12 10:39:24;;;;;;;4.20;2.03;;;35.30;89.10;;;;;;5009714;28;20449;-77
2022/06/12 10:41:58;;;;;;;3.47;1.50;;;35.70;85.40;;;;;;5013312;28;20437;-74
2022/06/12 10:44:34;;;;;;;2.37;1.43;;;35.70;84.50;;;;;;5015026;28;20451;-77
2022/06/12 10:47:20;;;;;;;2.00;1.43;;;36.10;80.90;;;;;;5014859;28;20466;-77
2022/06/12 10:49:48;;;;;;;3.20;1.23;;;36.10;81.50;;;;;;5001152;28;20476;-76
2022/06/12 10:52:21;;;;;;;1.63;1.30;;;36.20;83.00;;;;;;5014032;28;20430;-75
2022/06/12 10:54:50;;;;;;;2.30;1.27;;;36.20;79.60;;;;;;5014729;28;20480;-74
2022/06/12 10:57:24;;;;;;;1.77;1.37;;;36.30;81.00;;;;;;5014355;28;20401;-76
2022/06/12 11:00:01;;;;;;;1.77;1.63;;;36.10;79.90;;;;;;5014392;28;20835;-76
2022/06/12 11:02:47;;;;;;;1.63;1.53;;;36.10;79.40;;;;;;5013711;28;20494;-76
2022/06/12 11:05:22;;;;;;;2.20;2.00;;;35.50;80.50;;;;;;5014654;28;20956;-77
2022/06/12 11:07:57;;;;;;;1.67;1.57;;;34.60;81.60;;;;;;5014289;28;20829;-77
2022/06/12 11:10:44;;;;;;;2.97;1.57;;;34.40;83.60;;;;;;5013998;28;20484;-74
2022/06/12 11:13:29;;;;;;;3.20;1.50;;;34.50;81.10;;;;;;5013996;28;20789;-77
2022/06/12 11:16:31;;;;;;;4.93;2.07;;;34.30;83.20;;;;;;5014488;28;20406;-76
2022/06/12 11:19:19;;;;;;;2.77;1.90;;;34.10;84.00;;;;;;5001771;28;20797;-76
2022/06/12 11:22:02;;;;;;;2.77;1.30;;;33.80;84.70;;;;;;5013454;28;20438;-74
2022/06/12 11:25:10;;;;;;;2.03;1.60;;;33.60;85.40;;;;;;5014005;28;20440;-76
2022/06/12 11:27:41;;;;;;;2.93;2.17;;;32.90;87.10;;;;;;5010095;28;20890;-76
2022/06/12 11:30:30;;;;;;;3.03;1.53;;;32.60;84.80;;;;;;4999573;28;20492;-77
2022/06/12 11:33:17;;;;;;;2.00;1.83;;;32.50;86.20;;;;;;4993034;28;20854;-75
2022/06/12 11:35:53;;;;;;;2.27;2.07;;;32.50;89.30;;;;;;4994349;28;20407;-76
2022/06/12 11:38:45;;;;;;;2.83;2.10;;;32.00;88.00;;;;;;4994022;28;20490;-76
2022/06/12 11:41:39;;;;;;;9.73;2.07;;;31.50;88.90;;;;;;5012390;28;20537;-77
2022/06/12 11:44:08;;;;;;;3.60;1.70;;;31.40;90.10;;;;;;5013785;28;20397;-76
2022/06/12 11:46:46;;;;;;;3.03;2.40;;;31.00;90.10;;;;;;5013492;28;20412;-75
2022/06/12 11:49:29;;;;;;;2.30;1.90;;;30.90;91.20;;;;;;5013301;28;20463;-76
2022/06/12 11:52:20;;;;;;;1.93;1.83;;;30.70;90.40;;;;;;5013350;28;20429;-76
2022/06/12 11:54:54;;;;;;;2.67;1.33;;;30.50;92.50;;;;;;5012334;28;20420;-75
2022/06/12 11:57:36;;;;;;;5.20;1.80;;;30.40;92.40;;;;;;5013177;28;20437;-76
2022/06/12 12:00:17;;;;;;;4.63;3.40;;;30.50;93.30;;;;;;5013324;28;20418;-73
2022/06/12 12:03:07;;;;;;;3.90;2.20;;;30.80;91.70;;;;;;5012646;28;20437;-74
2022/06/12 12:05:38;;;;;;;2.07;1.97;;;31.30;93.50;;;;;;5013141;28;20508;-73
2022/06/12 12:08:48;;;;;;;3.13;2.33;;;31.60;91.60;;;;;;5012732;28;20905;-72
2022/06/12 12:11:17;;;;;;;3.07;2.00;;;31.70;90.90;;;;;;5012151;28;20941;-73
2022/06/12 12:13:47;;;;;;;2.07;1.80;;;31.80;91.50;;;;;;5012767;28;20397;-73
2022/06/12 12:16:30;;;;;;;1.80;1.57;;;31.90;91.20;;;;;;5012840;28;20753;-72
2022/06/12 12:19:22;;;;;;;2.33;2.20;;;31.90;90.80;;;;;;5012710;28;20432;-72
2022/06/12 12:21:59;;;;;;;5.17;2.10;;;31.90;90.00;;;;;;5012556;28;20500;-72
2022/06/12 12:24:47;;;;;;;1.77;1.67;;;31.60;90.20;;;;;;5012531;28;20804;-73
2022/06/12 12:27:35;;;;;;;2.80;2.20;;;31.80;90.90;;;;;;5012552;28;20409;-73
2022/06/12 12:30:06;;;;;;;3.60;1.83;;;31.60;90.10;;;;;;5012316;28;20937;-73
2022/06/12 12:32:33;;;;;;;3.60;1.80;;;31.40;91.90;;;;;;5012071;28;20878;-73
2022/06/12 12:34:59;;;;;;;3.43;2.90;;;31.10;91.60;;;;;;5012493;28;20409;-73
2022/06/12 12:43:14;;;;;;;2.30;2.10;;;30.40;92.90;;;;;;5012467;28;20415;-73
2022/06/12 12:45:39;;;;;;;6.37;2.10;;;30.50;93.20;;;;;;5012379;28;20910;-73
2022/06/12 12:48:09;;;;;;;2.73;1.90;;;30.80;93.10;;;;;;5011094;28;20639;-73
2022/06/12 12:50:50;;;;;;;4.30;2.10;;;31.00;93.00;;;;;;5011807;28;20667;-74
2022/06/12 12:53:20;;;;;;;2.37;2.17;;;30.80;92.20;;;;;;5011727;28;20504;-73
2022/06/12 12:56:07;;;;;;;4.33;2.20;;;30.70;92.20;;;;;;5011397;28;20782;-73
2022/06/12 12:58:40;;;;;;;2.30;1.77;;;30.90;92.90;;;;;;5010823;28;20420;-73
2022/06/12 13:01:12;;;;;;;2.60;2.00;;;31.20;93.40;;;;;;5011600;28;20437;-72
2022/06/12 13:03:51;;;;;;;4.83;2.30;;;31.30;92.70;;;;;;5011506;28;20416;-73
2022/06/12 13:06:25;;;;;;;3.10;2.50;;;31.20;93.60;;;;;;5010587;28;20425;-73
2022/06/12 13:09:07;;;;;;;7.73;2.17;;;30.80;94.40;;;;;;5011236;28;20453;-74
2022/06/12 13:12:01;;;;;;;2.37;2.17;;;30.80;95.10;;;;;;5010235;28;20514;-73
2022/06/12 13:14:51;;;;;;;3.23;2.13;;;30.70;94.70;;;;;;5010193;28;20421;-72
2022/06/12 13:17:28;;;;;;;2.67;2.30;;;30.80;94.60;;;;;;5011601;28;20405;-73
2022/06/12 13:20:06;;;;;;;2.30;2.20;;;31.00;94.40;;;;;;5011616;28;20410;-76
2022/06/12 13:23:01;;;;;;;2.50;2.30;;;30.90;94.60;;;;;;5011238;28;20448;-73
2022/06/12 13:25:35;;;;;;;2.80;2.20;;;31.00;95.10;;;;;;5011576;28;20421;-72
2022/06/12 13:28:01;;;;;;;4.00;2.10;;;31.20;94.80;;;;;;5011523;28;20420;-72
2022/06/12 13:30:31;;;;;;;2.80;2.47;;;31.40;93.90;;;;;;5009992;28;20961;-72
2022/06/12 13:33:14;;;;;;;3.93;2.33;;;31.50;94.30;;;;;;5011149;28;20210;-73
2022/06/12 13:35:49;;;;;;;2.17;2.03;;;31.60;93.80;;;;;;5011261;28;20438;-73
2022/06/12 13:38:25;;;;;;;2.70;2.50;;;31.70;94.30;;;;;;5011376;28;20413;-73
2022/06/12 13:41:05;;;;;;;3.10;2.80;;;31.70;95.30;;;;;;5011349;28;20405;-72
2022/06/12 13:43:40;;;;;;;3.00;2.10;;;31.60;94.00;;;;;;5010306;28;20422;-73
2022/06/12 13:46:31;;;;;;;2.13;1.80;;;31.40;94.90;;;;;;5012335;28;20815;-73
2022/06/12 13:48:59;;;;;;;2.27;2.07;;;31.40;94.20;;;;;;5010756;28;20460;-73
2022/06/12 13:51:51;;;;;;;2.20;2.10;;;31.20;94.30;;;;;;5009661;28;20472;-73
2022/06/12 13:54:22;;;;;;;4.40;2.13;;;31.20;93.60;;;;;;5010122;28;20420;-72
2022/06/12 13:57:00;;;;;;;2.00;1.90;;;31.30;95.40;;;;;;5010253;28;20509;-74
2022/06/12 13:59:31;;;;;;;2.17;2.07;;;31.20;94.70;;;;;;5010085;28;20928;-73
2022/06/12 14:02:08;;;;;;;1.97;1.83;;;30.90;95.00;;;;;;5009745;28;20449;-73
2022/06/12 14:04:34;;;;;;;2.10;2.00;;;30.80;95.60;;;;;;5009940;28;20421;-71
2022/06/12 14:07:01;;;;;;;2.83;2.63;;;30.50;96.20;;;;;;4993612;28;20429;-73
2022/06/12 14:09:32;;;;;;;2.87;2.10;;;30.60;96.80;;;;;;5009660;28;20465;-72
2022/06/12 14:12:00;;;;;;;3.10;2.17;;;30.70;96.50;;;;;;5009093;28;20440;-72
2022/06/12 14:14:47;;;;;;;3.43;2.20;;;30.80;96.70;;;;;;5009560;28;20439;-72
2022/06/12 14:17:38;;;;;;;3.07;2.70;;;30.90;96.20;;;;;;5012403;28;20471;-72
2022/06/12 14:20:22;;;;;;;2.37;2.17;;;30.70;97.00;;;;;;5013195;28;21000;-73
2022/06/12 14:22:50;;;;;;;3.10;2.70;;;30.60;97.70;;;;;;5013390;28;20797;-74
2022/06/12 14:25:36;;;;;;;2.20;1.87;;;30.50;96.90;;;;;;5013497;28;20417;-73
2022/06/12 14:28:24;;;;;;;5.23;2.90;;;30.50;97.00;;;;;;5014752;28;20412;-73
2022/06/12 14:31:20;;;;;;;3.30;2.50;;;30.40;97.90;;;;;;5012230;28;20442;-72
2022/06/12 14:34:03;;;;;;;4.00;2.77;;;30.40;97.80;;;;;;5013318;28;20450;-74
2022/06/12 14:36:32;;;;;;;3.17;2.50;;;30.30;97.30;;;;;;5014713;28;20413;-73
2022/06/12 14:39:18;;;;;;;2.60;2.20;;;30.20;97.90;;;;;;5013208;28;20413;-72
2022/06/12 14:41:54;;;;;;;2.60;2.37;;;30.20;98.50;;;;;;5013061;28;20945;-73
2022/06/12 14:44:20;;;;;;;3.57;2.47;;;30.20;98.20;;;;;;4996670;28;20511;-72
2022/06/12 14:46:46;;;;;;;3.10;2.80;;;30.20;98.80;;;;;;5013241;28;21005;-73
2022/06/12 14:49:18;;;;;;;3.77;1.77;;;30.30;98.70;;;;;;5012778;28;20461;-73
2022/06/12 14:51:44;;;;;;;3.20;2.50;;;30.30;97.80;;;;;;5014151;28;20437;-72
2022/06/12 14:54:11;;;;;;;5.37;2.70;;;30.30;97.40;;;;;;4996845;28;20410;-72
2022/06/12 14:56:39;;;;;;;4.80;4.30;;;30.30;98.10;;;;;;5012904;28;20448;-72
2022/06/12 14:59:11;;;;;;;3.10;2.87;;;30.30;97.90;;;;;;5012732;28;20434;-73
2022/06/12 15:01:36;;;;;;;3.33;2.97;;;30.20;97.70;;;;;;5012739;28;20448;-73
2022/06/12 15:04:02;;;;;;;2.50;2.30;;;30.20;97.70;;;;;;5012593;28;20417;-73